createdAt,value
2018-03-11T00:02:21.874Z,9.47
2018-03-11T00:04:48.367Z,9.20
2018-03-11T00:07:14.843Z,9.90
2018-03-11T00:09:41.347Z,10.40
2018-03-11T00:12:07.893Z,8.90
2018-03-11T00:14:35.137Z,9.80
2018-03-11T00:17:02.357Z,9.70
2018-03-11T00:19:29.626Z,8.93
2018-03-11T00:21:56.101Z,9.17
2018-03-11T00:24:22.579Z,12.23
2018-03-11T00:26:49.058Z,9.57
2018-03-11T00:29:15.555Z,9.70
2018-03-11T00:31:42.038Z,10.07
2018-03-11T00:34:08.544Z,9.30
2018-03-11T00:36:35.036Z,9.93
2018-03-11T00:39:02.219Z,9.43
2018-03-11T00:41:28.740Z,9.27
2018-03-11T00:43:55.210Z,9.57
2018-03-11T00:46:22.428Z,10.23
2018-03-11T00:48:48.911Z,8.53
2018-03-11T00:51:15.406Z,10.07
2018-03-11T00:53:41.922Z,9.63
2018-03-11T00:56:09.168Z,10.30
2018-03-11T00:58:35.642Z,9.53
2018-03-11T01:01:02.132Z,10.17
2018-03-11T01:03:28.623Z,10.23
2018-03-11T01:05:55.837Z,9.97
2018-03-11T01:08:22.330Z,10.43
2018-03-11T01:10:48.810Z,9.63
2018-03-11T01:13:15.274Z,9.70
2018-03-11T01:15:41.855Z,9.87
2018-03-11T01:18:08.381Z,9.90
2018-03-11T01:20:34.908Z,9.33
2018-03-11T01:23:01.419Z,9.93
2018-03-11T01:25:27.950Z,9.20
2018-03-11T01:27:55.210Z,10.60
2018-03-11T01:30:22.421Z,9.93
2018-03-11T01:32:48.895Z,9.50
2018-03-11T01:35:16.106Z,9.70
2018-03-11T01:37:42.593Z,9.33
2018-03-11T01:40:09.202Z,9.23
2018-03-11T01:42:35.688Z,9.63
2018-03-11T01:45:02.177Z,10.43
2018-03-11T01:47:29.414Z,10.20
2018-03-11T01:49:55.885Z,9.20
2018-03-11T01:52:22.355Z,9.47
2018-03-11T01:54:48.845Z,9.60
2018-03-11T01:57:16.085Z,9.70
2018-03-11T01:59:43.324Z,9.13
2018-03-11T02:02:09.823Z,9.63
2018-03-11T02:04:36.386Z,10.40
2018-03-11T02:07:02.902Z,9.93
2018-03-11T02:09:29.430Z,9.87
2018-03-11T02:11:56.704Z,10.13
2018-03-11T02:14:23.285Z,10.50
2018-03-11T02:16:49.823Z,9.90
2018-03-11T02:19:16.313Z,9.97
2018-03-11T02:21:42.844Z,10.57
2018-03-11T02:24:09.372Z,10.17
2018-03-11T02:26:35.891Z,9.07
2018-03-11T02:29:02.358Z,9.43
2018-03-11T02:31:28.834Z,9.57
2018-03-11T02:33:55.359Z,9.47
2018-03-11T02:36:21.883Z,9.17
2018-03-11T02:38:49.119Z,9.53
2018-03-11T02:41:15.599Z,9.73
2018-03-11T02:43:42.417Z,9.70
2018-03-11T02:46:09.738Z,9.03
2018-03-11T02:48:36.247Z,9.47
2018-03-11T02:51:02.714Z,9.20
2018-03-11T02:53:29.243Z,9.63
2018-03-11T02:55:55.760Z,8.90
2018-03-11T02:58:22.249Z,9.03
2018-03-11T03:00:49.482Z,9.73
2018-03-11T03:03:16.706Z,8.87
2018-03-11T03:05:43.169Z,8.37
2018-03-11T03:08:09.666Z,9.37
2018-03-11T03:10:36.148Z,8.50
2018-03-11T03:13:03.407Z,9.00
2018-03-11T03:15:29.914Z,9.50
2018-03-11T03:17:56.388Z,7.80
2018-03-11T03:20:22.866Z,8.33
2018-03-11T03:22:50.061Z,8.50
2018-03-11T03:25:16.552Z,9.20
2018-03-11T03:27:43.041Z,8.30
2018-03-11T03:30:09.620Z,8.20
2018-03-11T03:32:36.147Z,9.50
2018-03-11T03:35:02.613Z,8.23
2018-03-11T03:37:30.021Z,8.60
2018-03-11T03:39:56.488Z,9.77
2018-03-11T03:42:23.011Z,9.23
2018-03-11T03:44:50.216Z,8.37
2018-03-11T03:47:16.708Z,8.23
2018-03-11T03:49:43.210Z,9.27
2018-03-11T03:52:09.790Z,8.53
2018-03-11T03:54:36.272Z,8.73
2018-03-11T03:57:02.846Z,8.40
2018-03-11T03:59:29.349Z,9.10
2018-03-11T04:01:55.830Z,8.17
2018-03-11T04:04:23.058Z,7.93
2018-03-11T04:06:49.595Z,8.77
2018-03-11T04:09:16.066Z,9.00
2018-03-11T04:11:43.346Z,8.37
2018-03-11T04:14:09.849Z,8.30
2018-03-11T04:16:36.335Z,8.20
2018-03-11T04:19:02.834Z,8.33
2018-03-11T04:21:30.046Z,9.03
2018-03-11T04:23:57.291Z,8.33
2018-03-11T04:26:23.778Z,7.93
2018-03-11T04:28:50.290Z,7.80
2018-03-11T04:31:16.750Z,9.30
2018-03-11T04:33:43.501Z,9.27
2018-03-11T04:36:09.980Z,8.47
2018-03-11T04:38:36.444Z,9.10
2018-03-11T04:41:02.992Z,9.00
2018-03-11T04:43:29.510Z,9.20
2018-03-11T04:45:56.010Z,10.00
2018-03-11T04:48:23.284Z,9.47
2018-03-11T04:50:49.784Z,10.97
2018-03-11T04:53:16.265Z,10.43
2018-03-11T04:55:42.850Z,10.33
2018-03-11T04:58:09.358Z,10.43
2018-03-11T05:00:35.841Z,10.67
2018-03-11T05:03:03.100Z,10.87
2018-03-11T05:05:29.631Z,9.60
2018-03-11T05:07:56.120Z,10.33
2018-03-11T05:10:22.607Z,9.97
2018-03-11T05:12:49.088Z,10.00
2018-03-11T05:15:15.612Z,10.67
2018-03-11T05:17:42.077Z,10.40
2018-03-11T05:20:08.567Z,10.57
2018-03-11T05:22:35.128Z,11.03
2018-03-11T05:25:01.633Z,11.00
2018-03-11T05:27:28.115Z,10.43
2018-03-11T05:29:54.594Z,11.23
2018-03-11T05:32:21.110Z,12.27
2018-03-11T05:34:48.314Z,11.60
2018-03-11T05:37:14.858Z,11.20
2018-03-11T05:39:41.354Z,10.07
2018-03-11T05:42:07.824Z,10.60
2018-03-11T05:44:34.330Z,11.20
2018-03-11T05:47:00.889Z,11.83
2018-03-11T05:49:27.476Z,9.77
2018-03-11T05:51:53.934Z,11.17
2018-03-11T05:54:21.222Z,11.13
2018-03-11T05:56:47.743Z,11.30
2018-03-11T05:59:14.235Z,11.33
2018-03-11T06:01:41.490Z,11.03
2018-03-11T06:04:08.040Z,11.40
2018-03-11T06:06:34.524Z,10.77
2018-03-11T06:09:01.006Z,9.57
2018-03-11T06:11:27.553Z,10.13
2018-03-11T06:13:54.051Z,11.40
2018-03-11T06:16:21.314Z,10.87
2018-03-11T06:18:47.798Z,11.17
2018-03-11T06:21:14.294Z,10.87
2018-03-11T06:23:40.795Z,10.50
2018-03-11T06:26:07.375Z,9.60
2018-03-11T06:28:33.857Z,9.33
2018-03-11T06:31:00.351Z,9.50
2018-03-11T06:33:27.578Z,9.37
2018-03-11T06:35:54.053Z,10.87
2018-03-11T06:38:20.552Z,9.63
2018-03-11T06:40:47.019Z,9.33
2018-03-11T06:43:13.492Z,8.77
2018-03-11T06:45:39.969Z,9.53
2018-03-11T06:48:07.247Z,9.60
2018-03-11T06:50:33.723Z,9.43
2018-03-11T06:53:00.200Z,9.07
2018-03-11T06:55:27.436Z,9.60
2018-03-11T06:57:53.921Z,10.13
2018-03-11T07:00:20.391Z,9.40
2018-03-11T07:02:46.906Z,8.67
2018-03-11T07:05:13.438Z,9.63
2018-03-11T07:07:39.938Z,9.93
2018-03-11T07:10:06.420Z,9.73
2018-03-11T07:12:33.693Z,9.73
2018-03-11T07:15:00.185Z,9.60
2018-03-11T07:17:26.658Z,9.37
2018-03-11T07:19:53.210Z,8.50
2018-03-11T07:22:20.442Z,9.13
2018-03-11T07:24:46.952Z,9.43
2018-03-11T07:27:13.413Z,15.03
2018-03-11T07:29:39.882Z,9.47
2018-03-11T07:32:06.463Z,8.57
2018-03-11T07:34:32.996Z,8.47
2018-03-11T07:37:00.226Z,9.17
2018-03-11T07:39:26.762Z,8.90
2018-03-11T07:41:53.305Z,8.83
2018-03-11T07:44:19.787Z,9.00
2018-03-11T07:46:46.346Z,9.07
2018-03-11T07:49:12.901Z,9.37
2018-03-11T07:51:39.392Z,8.83
2018-03-11T07:54:05.967Z,9.07
2018-03-11T07:56:32.459Z,9.77
2018-03-11T07:58:58.930Z,10.00
2018-03-11T08:01:25.435Z,8.70
2018-03-11T08:03:52.642Z,9.23
2018-03-11T08:06:19.112Z,9.47
2018-03-11T08:08:45.651Z,9.00
2018-03-11T08:11:12.135Z,10.00
2018-03-11T08:13:38.616Z,11.60
2018-03-11T08:16:05.116Z,10.57
2018-03-11T08:18:31.596Z,9.80
2018-03-11T08:20:58.827Z,9.17
2018-03-11T08:23:25.385Z,8.73
2018-03-11T08:25:52.841Z,7.83
2018-03-11T08:28:20.019Z,7.80
2018-03-11T08:30:46.517Z,8.50
2018-03-11T08:33:12.988Z,7.93
2018-03-11T08:35:39.554Z,8.00
2018-03-11T08:38:06.071Z,8.37
2018-03-11T08:40:32.587Z,9.13
2018-03-11T08:42:59.128Z,7.83
2018-03-11T08:45:25.615Z,6.73
2018-03-11T08:47:52.125Z,7.60
2018-03-11T08:50:18.631Z,6.27
2018-03-11T08:52:45.151Z,5.93
2018-03-11T08:55:12.387Z,6.10
2018-03-11T08:57:38.932Z,5.97
2018-03-11T09:00:06.136Z,6.10
2018-03-11T09:02:33.460Z,6.30
2018-03-11T09:05:00.160Z,5.20
2018-03-11T09:07:26.685Z,4.80
2018-03-11T09:09:53.297Z,4.73
2018-03-11T09:12:19.848Z,5.77
2018-03-11T09:14:46.338Z,5.47
2018-03-11T09:17:12.846Z,6.27
2018-03-11T09:19:40.069Z,5.80
2018-03-11T09:22:06.557Z,5.93
2018-03-11T09:24:34.601Z,5.60
2018-03-11T09:27:01.145Z,6.57
2018-03-11T09:29:27.665Z,6.20
2018-03-11T09:31:54.185Z,5.83
2018-03-11T09:34:20.680Z,6.23
2018-03-11T09:36:47.192Z,5.83
2018-03-11T09:39:14.446Z,6.03
2018-03-11T09:41:41.729Z,5.70
2018-03-11T09:44:08.193Z,5.73
2018-03-11T09:46:34.664Z,5.27
2018-03-11T09:49:08.947Z,4.93
2018-03-11T09:51:35.474Z,5.30
2018-03-11T09:54:01.949Z,5.27
2018-03-11T09:56:28.430Z,5.30
2018-03-11T09:58:54.926Z,4.97
2018-03-11T10:01:22.152Z,5.20
2018-03-11T10:03:48.716Z,5.20
2018-03-11T10:06:15.245Z,5.30
2018-03-11T10:08:42.554Z,5.47
2018-03-11T10:11:09.043Z,5.30
2018-03-11T10:13:36.268Z,5.50
2018-03-11T10:16:02.769Z,5.50
2018-03-11T10:18:29.333Z,5.53
2018-03-11T10:20:55.843Z,4.93
2018-03-11T10:23:22.328Z,5.37
2018-03-11T10:25:48.830Z,4.67
2018-03-11T10:28:15.367Z,4.90
2018-03-11T10:30:41.854Z,4.60
2018-03-11T10:33:08.379Z,4.80
2018-03-11T10:35:34.901Z,4.80
2018-03-11T10:38:02.165Z,4.37
2018-03-11T10:40:29.455Z,4.70
2018-03-11T10:42:55.936Z,4.67
2018-03-11T10:45:23.176Z,3.07
2018-03-11T10:47:49.654Z,3.10
2018-03-11T10:50:16.188Z,2.97
2018-03-11T10:52:42.701Z,3.27
2018-03-11T10:55:09.192Z,3.00
2018-03-11T10:57:36.482Z,2.80
2018-03-11T11:00:03.758Z,2.97
2018-03-11T11:02:32.277Z,2.93
2018-03-11T11:04:59.696Z,2.73
2018-03-11T11:07:26.230Z,2.67
2018-03-11T11:09:52.763Z,2.47
2018-03-11T11:12:19.266Z,3.00
2018-03-11T11:14:45.771Z,2.80
2018-03-11T11:17:12.285Z,3.37
2018-03-11T11:19:38.784Z,2.73
2018-03-11T11:22:05.301Z,3.00
2018-03-11T11:24:31.809Z,3.00
2018-03-11T11:26:58.329Z,2.80
2018-03-11T11:29:24.837Z,3.20
2018-03-11T11:31:52.067Z,3.20
2018-03-11T11:34:18.577Z,3.30
2018-03-11T11:36:45.123Z,3.50
2018-03-11T11:39:12.382Z,3.20
2018-03-11T11:41:38.859Z,3.23
2018-03-11T11:44:05.405Z,3.23
2018-03-11T11:46:31.884Z,3.33
2018-03-11T11:48:58.342Z,3.63
2018-03-11T11:51:25.557Z,3.57
2018-03-11T11:53:52.046Z,3.17
2018-03-11T11:56:18.587Z,3.00
2018-03-11T11:58:45.192Z,3.07
2018-03-11T12:01:11.693Z,2.83
2018-03-11T12:03:38.201Z,3.03
2018-03-11T12:06:04.751Z,2.73
2018-03-11T12:08:32.243Z,2.63
2018-03-11T12:10:58.753Z,2.40
2018-03-11T12:13:25.257Z,2.33
2018-03-11T12:15:51.745Z,2.57
2018-03-11T12:18:18.219Z,2.30
2018-03-11T12:20:44.818Z,2.57
2018-03-11T12:23:11.302Z,2.30
2018-03-11T12:25:37.806Z,2.50
2018-03-11T12:28:04.326Z,2.40
2018-03-11T12:30:30.874Z,2.43
2018-03-11T12:32:57.373Z,2.50
2018-03-11T12:35:23.883Z,2.67
2018-03-11T12:37:50.361Z,2.57
2018-03-11T12:40:16.869Z,2.70
2018-03-11T12:42:43.349Z,2.63
2018-03-11T12:45:09.823Z,3.00
2018-03-11T12:47:36.293Z,2.50
2018-03-11T12:50:02.833Z,1.80
2018-03-11T12:52:29.374Z,2.00
2018-03-11T12:54:55.949Z,1.90
2018-03-11T12:57:22.619Z,1.60
2018-03-11T12:59:49.196Z,1.70
2018-03-11T13:02:15.779Z,1.60
2018-03-11T13:04:42.253Z,1.50
2018-03-11T13:07:08.796Z,1.50
2018-03-11T13:09:35.419Z,1.77
2018-03-11T13:12:02.018Z,1.43
2018-03-11T13:14:28.578Z,1.40
2018-03-11T13:16:55.040Z,1.70
2018-03-11T13:19:21.536Z,1.20
2018-03-11T13:21:48.028Z,1.50
2018-03-11T13:24:14.599Z,1.30
2018-03-11T13:26:41.121Z,1.50
2018-03-11T13:29:07.613Z,1.43
2018-03-11T13:31:34.100Z,1.50
2018-03-11T13:37:02.580Z,1.40
2018-03-11T13:39:41.184Z,1.27
2018-03-11T13:42:08.442Z,1.20
2018-03-11T13:44:35.675Z,1.47
2018-03-11T13:47:06.658Z,1.40
2018-03-11T13:49:33.366Z,1.47
2018-03-11T13:52:12.637Z,1.60
2018-03-11T13:54:39.937Z,1.40
2018-03-11T14:00:08.685Z,1.30
2018-03-11T14:02:35.206Z,1.37
2018-03-11T14:05:02.454Z,1.40
2018-03-11T14:07:28.997Z,1.43
2018-03-11T14:09:55.506Z,1.30
2018-03-11T14:12:22.020Z,1.20
2018-03-11T14:14:48.540Z,1.23
2018-03-11T14:17:15.019Z,1.10
2018-03-11T14:19:41.577Z,1.23
2018-03-11T14:22:08.810Z,1.40
2018-03-11T14:24:35.326Z,1.27
2018-03-11T14:27:01.793Z,1.30
2018-03-11T14:29:28.282Z,1.40
2018-03-11T14:31:54.854Z,1.77
2018-03-11T14:34:21.339Z,1.30
2018-03-11T14:36:47.840Z,1.50
2018-03-11T14:39:14.430Z,1.40
2018-03-11T14:41:40.907Z,1.30
2018-03-11T14:44:08.140Z,1.10
2018-03-11T14:46:34.675Z,1.50
2018-03-11T14:49:01.237Z,1.50
2018-03-11T14:51:28.471Z,1.50
2018-03-11T14:53:55.747Z,1.77
2018-03-11T14:56:22.234Z,1.40
2018-03-11T14:58:48.724Z,1.60
2018-03-11T15:01:16.070Z,1.80
2018-03-11T15:03:42.569Z,1.43
2018-03-11T15:06:09.054Z,1.50
2018-03-11T15:08:35.569Z,1.50
2018-03-11T15:11:02.845Z,1.60
2018-03-11T15:13:29.344Z,1.87
2018-03-11T15:15:56.700Z,1.70
2018-03-11T15:18:24.082Z,1.77
2018-03-11T15:20:50.600Z,1.40
2018-03-11T15:23:17.854Z,1.50
2018-03-11T15:25:45.094Z,1.80
2018-03-11T15:28:12.366Z,1.80
2018-03-11T15:30:38.942Z,1.47
2018-03-11T15:33:05.486Z,1.70
2018-03-11T15:35:32.029Z,1.37
2018-03-11T15:37:59.278Z,1.73
2018-03-11T15:40:25.835Z,1.70
2018-03-11T15:42:52.378Z,1.60
2018-03-11T15:45:18.911Z,1.50
2018-03-11T15:47:45.442Z,1.90
2018-03-11T15:50:11.963Z,1.57
2018-03-11T15:52:38.449Z,1.70
2018-03-11T15:55:05.040Z,1.60
2018-03-11T15:57:31.536Z,1.70
2018-03-11T15:59:58.038Z,1.57
2018-03-11T16:02:25.327Z,1.50
2018-03-11T16:04:51.826Z,1.73
2018-03-11T16:07:19.095Z,1.70
2018-03-11T16:09:45.631Z,1.90
2018-03-11T16:12:12.158Z,1.70
2018-03-11T16:14:38.679Z,1.47
2018-03-11T16:17:05.993Z,1.50
2018-03-11T16:19:32.505Z,1.70
2018-03-11T16:21:59.063Z,1.60
2018-03-11T16:24:28.558Z,1.70
2018-03-11T16:26:52.811Z,1.40
2018-03-11T16:29:19.320Z,1.87
2018-03-11T16:31:46.548Z,1.80
2018-03-11T16:34:13.143Z,1.87
2018-03-11T16:36:39.642Z,1.80
2018-03-11T16:39:06.874Z,2.30
2018-03-11T16:41:34.149Z,2.00
2018-03-11T16:44:01.383Z,1.80
2018-03-11T16:46:27.884Z,2.87
2018-03-11T16:48:54.413Z,1.80
2018-03-11T16:51:20.923Z,1.70
2018-03-11T16:53:48.141Z,1.67
2018-03-11T16:56:14.674Z,1.70
2018-03-11T16:58:41.158Z,1.90
2018-03-11T17:01:07.652Z,2.50
2018-03-11T17:03:34.120Z,2.53
2018-03-11T17:06:00.658Z,2.53
2018-03-11T17:08:27.171Z,2.53
2018-03-11T17:10:54.430Z,2.30
2018-03-11T17:13:21.696Z,2.80
2018-03-11T17:15:48.201Z,2.50
2018-03-11T17:18:14.717Z,2.47
2018-03-11T17:20:41.945Z,9.77
2018-03-11T17:23:08.409Z,2.97
2018-03-11T17:25:34.909Z,3.43
2018-03-11T17:28:01.439Z,3.40
2018-03-11T17:30:27.910Z,3.27
2018-03-11T17:32:54.446Z,4.07
2018-03-11T17:35:20.989Z,6.93
2018-03-11T17:37:47.545Z,3.13
2018-03-11T17:40:14.066Z,3.03
2018-03-11T17:42:40.674Z,4.07
2018-03-11T17:45:09.082Z,4.00
2018-03-11T17:47:35.561Z,4.10
2018-03-11T17:50:02.098Z,4.80
2018-03-11T17:52:28.649Z,4.93
2018-03-11T17:54:55.144Z,5.60
2018-03-11T17:57:22.371Z,4.57
2018-03-11T17:59:48.874Z,4.13
2018-03-11T18:02:15.370Z,3.63
2018-03-11T18:04:41.858Z,3.17
2018-03-11T18:07:08.333Z,2.83
2018-03-11T18:09:35.689Z,3.90
2018-03-11T18:12:02.966Z,4.30
2018-03-11T18:14:29.478Z,3.83
2018-03-11T18:16:56.001Z,3.23
2018-03-11T18:19:22.677Z,2.87
2018-03-11T18:21:49.287Z,3.47
2018-03-11T18:24:16.562Z,3.27
2018-03-11T18:26:43.074Z,3.70
2018-03-11T18:29:09.654Z,2.50
2018-03-11T18:31:36.139Z,3.03
2018-03-11T18:34:02.678Z,3.60
2018-03-11T18:36:29.208Z,3.43
2018-03-11T18:38:55.751Z,3.47
2018-03-11T18:41:22.229Z,3.33
2018-03-11T18:43:48.777Z,4.40
2018-03-11T18:46:15.360Z,3.93
2018-03-11T18:48:42.614Z,3.73
2018-03-11T18:51:09.858Z,4.10
2018-03-11T18:53:36.431Z,4.10
2018-03-11T18:56:03.036Z,4.30
2018-03-11T18:58:30.307Z,4.77
2018-03-11T19:00:56.811Z,4.73
2018-03-11T19:03:23.399Z,3.97
2018-03-11T19:05:49.934Z,4.90
2018-03-11T19:08:16.510Z,4.17
2018-03-11T19:10:43.082Z,3.97
2018-03-11T19:13:10.338Z,5.63
2018-03-11T19:15:37.632Z,6.73
2018-03-11T19:18:04.961Z,6.53
2018-03-11T19:20:32.143Z,6.57
2018-03-11T19:22:58.697Z,6.57
2018-03-11T19:25:25.296Z,5.43
2018-03-11T19:27:51.787Z,6.23
2018-03-11T19:30:18.275Z,5.20
2018-03-11T19:32:44.831Z,5.97
2018-03-11T19:35:11.424Z,6.33
2018-03-11T19:37:37.989Z,6.10
2018-03-11T19:40:04.477Z,6.60
2018-03-11T19:42:31.701Z,6.13
2018-03-11T19:44:58.195Z,6.10
2018-03-11T19:47:24.675Z,5.87
2018-03-11T19:49:51.227Z,5.50
2018-03-11T19:52:19.149Z,6.07
2018-03-11T19:54:45.630Z,6.33
2018-03-11T19:57:13.037Z,6.17
2018-03-11T19:59:39.520Z,6.47
2018-03-11T20:02:06.066Z,6.43
2018-03-11T20:04:32.571Z,6.30
2018-03-11T20:06:59.090Z,6.80
2018-03-11T20:09:26.322Z,7.70
2018-03-11T20:11:52.817Z,7.77
2018-03-11T20:14:20.180Z,7.63
2018-03-11T20:16:46.751Z,7.37
2018-03-11T20:19:13.318Z,7.37
2018-03-11T20:21:39.854Z,6.70
2018-03-11T20:24:06.342Z,7.27
2018-03-11T20:26:32.843Z,7.30
2018-03-11T20:29:00.086Z,6.33
2018-03-11T20:31:26.622Z,6.50
2018-03-11T20:33:53.173Z,6.50
2018-03-11T20:36:20.399Z,7.07
2018-03-11T20:38:46.940Z,7.10
2018-03-11T20:41:13.481Z,6.57
2018-03-11T20:43:40.030Z,6.93
2018-03-11T20:46:07.290Z,6.43
2018-03-11T20:48:33.789Z,8.27
2018-03-11T20:51:00.284Z,7.50
2018-03-11T20:53:26.825Z,6.70
2018-03-11T20:55:53.360Z,6.40
2018-03-11T20:58:19.889Z,7.13
2018-03-11T21:00:46.395Z,7.23
2018-03-11T21:03:13.670Z,7.50
2018-03-11T21:05:40.229Z,7.93
2018-03-11T21:08:06.803Z,7.67
2018-03-11T21:10:33.301Z,7.43
2018-03-11T21:12:59.828Z,7.30
2018-03-11T21:15:26.357Z,7.37
2018-03-11T21:17:52.898Z,7.33
2018-03-11T21:20:19.387Z,6.93
2018-03-11T21:22:45.926Z,8.00
2018-03-11T21:25:13.242Z,7.10
2018-03-11T21:27:39.789Z,7.20
2018-03-11T21:30:06.382Z,7.90
2018-03-11T21:32:32.862Z,8.20
2018-03-11T21:34:59.371Z,8.20
2018-03-11T21:37:25.960Z,7.57
2018-03-11T21:39:52.473Z,7.03
2018-03-11T21:42:18.937Z,7.17
2018-03-11T21:44:46.163Z,6.90
2018-03-11T21:47:12.681Z,7.47
2018-03-11T21:49:39.189Z,7.73
2018-03-11T21:52:05.689Z,7.73
2018-03-11T21:54:32.184Z,7.67
2018-03-11T21:56:58.651Z,7.93
2018-03-11T21:59:25.221Z,7.60
2018-03-11T22:01:51.697Z,7.03
2018-03-11T22:04:18.212Z,7.67
2018-03-11T22:06:44.704Z,7.47
2018-03-11T22:09:11.934Z,6.93
2018-03-11T22:11:38.424Z,7.03
2018-03-11T22:14:04.961Z,6.93
2018-03-11T22:16:31.494Z,6.47
2018-03-11T22:18:57.967Z,6.70
2018-03-11T22:21:24.484Z,7.33
2018-03-11T22:23:50.963Z,6.63
2018-03-11T22:26:18.223Z,7.23
2018-03-11T22:28:44.710Z,7.63
2018-03-11T22:31:11.234Z,7.80
2018-03-11T22:33:37.795Z,7.23
2018-03-11T22:36:04.290Z,8.20
2018-03-11T22:38:30.800Z,8.03
2018-03-11T22:40:58.072Z,8.93
2018-03-11T22:43:24.547Z,8.70
2018-03-11T22:45:51.070Z,8.07
2018-03-11T22:48:17.606Z,8.13
2018-03-11T22:50:44.082Z,7.77
2018-03-11T22:53:11.337Z,8.87
2018-03-11T22:55:37.870Z,7.83
2018-03-11T22:58:05.144Z,7.60
2018-03-11T23:00:31.682Z,8.00
2018-03-11T23:02:58.166Z,8.23
2018-03-11T23:05:25.402Z,8.43
2018-03-11T23:07:51.928Z,7.70
2018-03-11T23:10:18.406Z,8.97
2018-03-11T23:12:44.870Z,7.77
2018-03-11T23:15:11.406Z,7.77
2018-03-11T23:17:37.907Z,8.13
2018-03-11T23:20:04.395Z,8.00
2018-03-11T23:22:30.865Z,8.40
2018-03-11T23:24:57.412Z,8.83
2018-03-11T23:27:23.882Z,7.53
2018-03-11T23:29:50.380Z,8.87
2018-03-11T23:32:16.854Z,8.77
2018-03-11T23:34:43.345Z,8.03
2018-03-11T23:37:09.865Z,7.97
2018-03-11T23:39:36.358Z,8.23
2018-03-11T23:42:02.933Z,8.87
2018-03-11T23:44:29.465Z,7.63
2018-03-11T23:46:56.000Z,8.00
2018-03-11T23:49:22.584Z,8.43
2018-03-11T23:51:49.879Z,8.67
2018-03-11T23:54:16.380Z,8.07
2018-03-11T23:56:42.878Z,8.87
2018-03-11T23:59:09.366Z,8.83
